Strona główna
METAR-TAF:

METAR-TAF

Lotnisko :

Bedford, Pensylwania, Stany Zjednoczone

Szerokość geograficzna: 40-05-10N, Długość geograficzna: 078-30-49W, wysokość: 354 m

Aktualna obserwacja pogody

Raport powstał 35 minut temu, godzina 21:50 UTC
Wiatr 7 kt od południowo-południowy wschód
Temperatura 4°C
Wilgotność 48%
Ciśnienie 1024 hPa
Widzialność: 16.1 km
Rozproszone chmury na wysokości 5500 ft

METAR: KHMZ 082150Z AUTO 15007KT 10SM SCT055 04/M06 A3024 RMK AO2 T00411060

czas: 17:25 (22:25 UTC)


TAF: brakujący

Obserwacja i prognoza pogody dla ponad 4000 lotnisk (raport METAR i TAF).

Dostępne stacje oznaczono żółtymi i czerwonymi punktami na mapie.

Najedź kursorem aby zobaczyć nazwę stacji.

Kliknij aby zobaczyć obserwacje i prognozy pogody.

Aby zmienić mapę: kliknij na zielony przycisk z czarnym krzyżykiem, aby powiększyć; na zielony przycisk z myślnikiem, aby pomniejszyć; na zielone strzałki, aby przejść do map sąsiednich.


METAR-TAF: